createdAt,value
2022-07-26T00:00:10.110Z,19.7
2022-07-26T00:05:10.102Z,19.7
2022-07-26T00:10:10.120Z,19.7
2022-07-26T00:15:10.108Z,19.7
2022-07-26T00:20:10.106Z,19.8
2022-07-26T00:25:10.104Z,19.7
2022-07-26T00:30:10.115Z,19.8
2022-07-26T00:35:10.103Z,20.1
2022-07-26T00:40:10.116Z,20.4
2022-07-26T00:45:10.104Z,20.2
2022-07-26T00:50:10.105Z,20.2
2022-07-26T00:55:10.101Z,20.1
2022-07-26T01:00:10.123Z,20
2022-07-26T01:05:10.124Z,20.1
2022-07-26T01:10:10.119Z,20
2022-07-26T01:15:10.117Z,20
2022-07-26T01:20:10.137Z,20
2022-07-26T01:25:10.125Z,19.9
2022-07-26T01:30:10.226Z,19.7
2022-07-26T01:35:10.121Z,19.3
2022-07-26T01:40:10.106Z,19.1
2022-07-26T01:45:10.129Z,19.1
2022-07-26T01:50:10.099Z,18.9
2022-07-26T01:55:10.107Z,18.7
2022-07-26T02:00:10.117Z,18.5
2022-07-26T02:05:10.114Z,18.3
2022-07-26T02:10:10.112Z,18.2
2022-07-26T02:15:10.097Z,18.1
2022-07-26T02:20:10.120Z,17.9
2022-07-26T02:25:10.107Z,17.7
2022-07-26T02:30:10.104Z,17.7
2022-07-26T02:35:10.097Z,17.6
2022-07-26T02:40:10.924Z,17.4
2022-07-26T02:45:10.104Z,17.4
2022-07-26T02:50:10.104Z,17.4
2022-07-26T02:55:10.096Z,17.3
2022-07-26T03:00:10.104Z,17.2
2022-07-26T03:05:10.104Z,17.1
2022-07-26T03:10:10.094Z,17
2022-07-26T03:15:10.098Z,16.8
2022-07-26T03:20:10.116Z,16.6
2022-07-26T03:25:10.093Z,16.6
2022-07-26T03:30:10.122Z,17.3
2022-07-26T03:35:10.122Z,17.8
2022-07-26T03:40:10.115Z,18
2022-07-26T03:45:10.092Z,18
2022-07-26T03:50:10.118Z,17.9
2022-07-26T03:55:10.091Z,17.9
2022-07-26T04:00:10.114Z,17.7
2022-07-26T04:05:10.350Z,17.7
2022-07-26T04:10:10.104Z,17.2
2022-07-26T04:15:10.095Z,16.7
2022-07-26T04:20:10.095Z,16.4
2022-07-26T04:25:10.095Z,16.5
2022-07-26T04:30:14.657Z,16.4
2022-07-26T04:35:10.102Z,16.4
2022-07-26T04:40:10.099Z,17
2022-07-26T04:45:10.087Z,17.3
2022-07-26T04:50:10.110Z,18.1
2022-07-26T04:55:10.097Z,18.1
2022-07-26T05:00:21.112Z,18.4
2022-07-26T05:05:10.098Z,18.6
2022-07-26T05:10:10.108Z,18.7
2022-07-26T05:15:13.708Z,18.6
2022-07-26T05:20:10.121Z,18.5
2022-07-26T05:25:10.094Z,18.6
2022-07-26T05:30:10.106Z,18.7
2022-07-26T05:35:10.104Z,18.7
2022-07-26T05:40:10.122Z,18.7
2022-07-26T05:45:10.119Z,18.9
2022-07-26T05:50:10.105Z,19.2
2022-07-26T05:55:10.104Z,19.3
2022-07-26T06:00:10.113Z,19.3
2022-07-26T06:05:10.106Z,19.3
2022-07-26T06:10:10.115Z,19.6
2022-07-26T06:15:14.638Z,20.1
2022-07-26T06:20:10.117Z,20.5
2022-07-26T06:25:10.117Z,20.8
2022-07-26T06:30:10.110Z,20.8
2022-07-26T06:35:10.110Z,21.2
2022-07-26T06:40:10.128Z,21.1
2022-07-26T06:45:10.108Z,21.1
2022-07-26T06:50:10.109Z,21
2022-07-26T06:55:12.501Z,21.1
2022-07-26T07:00:10.134Z,21.2
2022-07-26T07:05:10.209Z,21.6
2022-07-26T07:10:10.134Z,21.8
2022-07-26T07:15:10.090Z,22.2
2022-07-26T07:20:10.114Z,22.2
2022-07-26T07:25:10.097Z,22.2
2022-07-26T07:30:10.093Z,21.8
2022-07-26T07:35:12.771Z,21.9
2022-07-26T07:40:10.094Z,22.2
2022-07-26T07:45:10.109Z,22.1
2022-07-26T07:50:10.122Z,22.2
2022-07-26T07:55:40.819Z,22.3
2022-07-26T08:00:10.108Z,22.4
2022-07-26T08:05:11.574Z,22.3
2022-07-26T08:10:10.117Z,22.7
2022-07-26T08:15:10.105Z,22.5
2022-07-26T08:20:10.842Z,23.1
2022-07-26T08:25:10.103Z,23
2022-07-26T08:30:10.103Z,23
2022-07-26T08:35:18.102Z,22.7
2022-07-26T08:40:10.114Z,22.9
2022-07-26T08:45:10.108Z,22.9
2022-07-26T08:50:10.104Z,22.6
2022-07-26T08:55:10.093Z,22.5
2022-07-26T09:00:10.108Z,22.5
2022-07-26T09:05:10.104Z,22.6
2022-07-26T09:10:10.107Z,23.1
2022-07-26T09:15:10.101Z,23.2
2022-07-26T09:20:10.101Z,22.9
2022-07-26T09:25:10.124Z,23.2
2022-07-26T09:30:10.118Z,23.6
2022-07-26T09:35:18.897Z,23.5
2022-07-26T09:40:10.126Z,23.7
2022-07-26T09:45:10.109Z,23.7
2022-07-26T09:50:11.591Z,23.5
2022-07-26T09:55:10.111Z,23.8
2022-07-26T10:00:10.109Z,23.8
2022-07-26T10:05:10.196Z,23.7
2022-07-26T10:10:10.106Z,23.3
2022-07-26T10:15:10.096Z,23.8
2022-07-26T10:20:15.177Z,23.8
2022-07-26T10:25:10.103Z,23.7
2022-07-26T10:30:10.107Z,23.7
2022-07-26T10:35:10.098Z,23.8
2022-07-26T10:40:10.101Z,24.2
2022-07-26T10:45:10.104Z,24.2
2022-07-26T10:50:10.157Z,24.2
2022-07-26T10:55:10.104Z,24.7
2022-07-26T11:00:10.128Z,24
2022-07-26T11:05:10.118Z,24.3
2022-07-26T11:10:10.102Z,24.2
2022-07-26T11:15:10.104Z,24.5
2022-07-26T11:20:10.119Z,24.3
2022-07-26T11:25:10.106Z,24.6
2022-07-26T11:30:10.139Z,24.2
2022-07-26T11:35:10.106Z,24
2022-07-26T11:40:10.122Z,24.4
2022-07-26T11:45:10.113Z,24.7
2022-07-26T11:50:14.206Z,24.5
2022-07-26T11:55:10.096Z,23.8
2022-07-26T12:00:10.104Z,23.8
2022-07-26T12:05:10.259Z,24.3
2022-07-26T12:10:10.101Z,24.7
2022-07-26T12:15:10.099Z,24.5
2022-07-26T12:20:10.109Z,24.6
2022-07-26T12:25:10.105Z,24.2
2022-07-26T12:30:10.107Z,24.6
2022-07-26T12:35:10.109Z,24.6
2022-07-26T12:40:10.118Z,24.5
2022-07-26T12:45:10.118Z,24.5
2022-07-26T12:50:10.114Z,24.6
2022-07-26T12:55:10.099Z,24.5
2022-07-26T13:00:10.117Z,25.4
2022-07-26T13:05:10.164Z,25.2
2022-07-26T13:15:10.113Z,24
2022-07-26T13:20:10.105Z,23.7
2022-07-26T13:25:10.094Z,23.6
2022-07-26T13:30:10.111Z,23.6
2022-07-26T13:35:10.098Z,24.1
2022-07-26T13:40:10.107Z,24.3
2022-07-26T13:45:10.106Z,24.5
2022-07-26T13:50:10.113Z,24.5
2022-07-26T13:55:10.103Z,24.8
2022-07-26T14:00:10.111Z,25.2
2022-07-26T14:05:10.114Z,25.2
2022-07-26T14:10:10.113Z,25.2
2022-07-26T14:15:13.967Z,25.1
2022-07-26T14:20:10.122Z,25.2
2022-07-26T14:25:10.108Z,25.1
2022-07-26T14:30:10.098Z,24.9
2022-07-26T14:35:10.093Z,24.7
2022-07-26T14:40:10.120Z,24.3
2022-07-26T14:45:10.134Z,24.5
2022-07-26T14:50:10.111Z,24.4
2022-07-26T14:55:10.107Z,24.1
2022-07-26T15:00:10.114Z,24.1
2022-07-26T15:05:10.112Z,24
2022-07-26T15:10:10.113Z,24
2022-07-26T15:15:10.114Z,24.2
2022-07-26T15:20:10.117Z,24.2
2022-07-26T15:25:10.112Z,24
2022-07-26T15:30:13.384Z,24.1
2022-07-26T15:35:14.022Z,24.3
2022-07-26T15:40:10.114Z,24.5
2022-07-26T15:45:10.108Z,24.3
2022-07-26T15:50:10.105Z,24.2
2022-07-26T15:55:10.093Z,24.2
2022-07-26T16:00:10.767Z,23.9
2022-07-26T16:05:10.106Z,23.9
2022-07-26T16:10:10.111Z,23.7
2022-07-26T16:15:10.104Z,23.7
2022-07-26T16:20:10.109Z,23.6
2022-07-26T16:25:10.100Z,23.5
2022-07-26T16:30:10.104Z,23.4
2022-07-26T16:35:10.104Z,23.4
2022-07-26T16:40:10.108Z,23.4
2022-07-26T16:45:10.115Z,23.6
2022-07-26T16:50:10.104Z,23.5
2022-07-26T16:55:10.099Z,23.8
2022-07-26T17:00:10.103Z,24
2022-07-26T17:05:10.097Z,24
2022-07-26T17:10:10.098Z,24
2022-07-26T17:15:10.103Z,23.8
2022-07-26T17:20:10.106Z,23.6
2022-07-26T17:25:10.113Z,23.5
2022-07-26T17:30:10.098Z,23.5
2022-07-26T17:35:10.099Z,23.4
2022-07-26T17:40:10.103Z,23.3
2022-07-26T17:45:10.108Z,23.4
2022-07-26T17:50:39.998Z,23.5
2022-07-26T17:55:10.107Z,23.6
2022-07-26T18:00:10.107Z,23.5
2022-07-26T18:05:10.131Z,23.5
2022-07-26T18:10:10.155Z,23.4
2022-07-26T18:15:10.097Z,23.2
2022-07-26T18:20:10.106Z,23
2022-07-26T18:25:10.096Z,22.7
2022-07-26T18:30:10.108Z,22.6
2022-07-26T18:35:10.122Z,22.5
2022-07-26T18:40:10.112Z,22.3
2022-07-26T18:45:10.105Z,21.9
2022-07-26T18:50:10.110Z,21.8
2022-07-26T18:55:10.103Z,21.5
2022-07-26T19:00:10.106Z,21.5
2022-07-26T19:05:10.097Z,21
2022-07-26T19:10:10.117Z,20.7
2022-07-26T19:15:10.097Z,20.5
2022-07-26T19:20:10.115Z,20.3
2022-07-26T19:25:10.097Z,20
2022-07-26T19:30:10.104Z,19.7
2022-07-26T19:35:10.101Z,19.5
2022-07-26T19:40:10.109Z,19.4
2022-07-26T19:45:10.108Z,19.3
2022-07-26T19:50:10.102Z,19.5
2022-07-26T19:55:10.107Z,20.7
2022-07-26T20:00:10.106Z,20.9
2022-07-26T20:05:10.113Z,20.7
2022-07-26T20:10:10.107Z,20.6
2022-07-26T20:15:10.115Z,20.5
2022-07-26T20:20:10.107Z,20.4
2022-07-26T20:25:10.099Z,20.3
2022-07-26T20:30:10.105Z,20.2
2022-07-26T20:35:10.107Z,20.1
2022-07-26T20:40:10.108Z,20
2022-07-26T20:45:11.227Z,20
2022-07-26T20:50:10.115Z,19.9
2022-07-26T20:55:10.111Z,19.9
2022-07-26T21:00:10.118Z,19.9
2022-07-26T21:05:10.097Z,19.8
2022-07-26T21:10:10.116Z,19.7
2022-07-26T21:15:10.117Z,19.7
2022-07-26T21:20:10.104Z,19.7
2022-07-26T21:25:10.106Z,19.6
2022-07-26T21:30:10.115Z,19.6
2022-07-26T21:35:10.107Z,19.5
2022-07-26T21:40:10.115Z,19.5
2022-07-26T21:45:10.108Z,19.4
2022-07-26T21:50:10.103Z,19.4
2022-07-26T21:55:10.092Z,19.4
2022-07-26T22:00:10.108Z,19.4
2022-07-26T22:05:10.098Z,19.4
2022-07-26T22:10:10.101Z,19.4
2022-07-26T22:15:10.103Z,19.3
2022-07-26T22:20:10.111Z,19.3
2022-07-26T22:25:10.115Z,19.2
2022-07-26T22:30:10.105Z,19.2
2022-07-26T22:35:10.100Z,19.1
2022-07-26T22:40:10.107Z,19.1
2022-07-26T22:45:10.254Z,19
2022-07-26T22:50:10.114Z,19
2022-07-26T22:55:10.101Z,18.9
2022-07-26T23:00:10.108Z,18.8
2022-07-26T23:05:10.106Z,18.8
2022-07-26T23:10:10.109Z,18.7
2022-07-26T23:15:10.216Z,18.6
2022-07-26T23:20:10.104Z,18.6
2022-07-26T23:25:10.105Z,18.5
2022-07-26T23:30:10.112Z,18.5
2022-07-26T23:35:10.108Z,18.5
2022-07-26T23:40:10.098Z,18.5
2022-07-26T23:45:10.101Z,18.5
2022-07-26T23:50:10.108Z,18.4
2022-07-26T23:55:10.116Z,18.4
